sensor_id;sensor_type;location;lat;lon;timestamp;pressure;altitude;pressure_sealevel;temperature;humidity
47592;BME280;33317;33.356;-117.184;2022-07-06T00:01:04;98975.30;;;26.68;25.49
47592;BME280;33317;33.356;-117.184;2022-07-06T00:03:32;98973.05;;;27.50;24.66
47592;BME280;33317;33.356;-117.184;2022-07-06T00:06:06;98969.14;;;28.25;24.38
47592;BME280;33317;33.356;-117.184;2022-07-06T00:08:35;98971.29;;;28.08;24.36
47592;BME280;33317;33.356;-117.184;2022-07-06T00:11:04;98969.35;;;27.33;24.77
47592;BME280;33317;33.356;-117.184;2022-07-06T00:13:32;98968.23;;;27.15;25.04
47592;BME280;33317;33.356;-117.184;2022-07-06T00:16:00;98970.19;;;26.64;25.29
47592;BME280;33317;33.356;-117.184;2022-07-06T00:18:28;98972.29;;;26.29;25.90
47592;BME280;33317;33.356;-117.184;2022-07-06T00:20:57;98970.17;;;26.48;25.61
47592;BME280;33317;33.356;-117.184;2022-07-06T00:23:26;98966.43;;;26.78;24.92
47592;BME280;33317;33.356;-117.184;2022-07-06T00:25:55;98967.01;;;26.76;25.07
47592;BME280;33317;33.356;-117.184;2022-07-06T00:28:23;98964.96;;;27.07;24.72
47592;BME280;33317;33.356;-117.184;2022-07-06T00:30:52;98966.53;;;27.55;24.77
47592;BME280;33317;33.356;-117.184;2022-07-06T00:33:22;98966.87;;;27.74;24.17
47592;BME280;33317;33.356;-117.184;2022-07-06T00:35:51;98969.14;;;28.07;24.03
47592;BME280;33317;33.356;-117.184;2022-07-06T00:38:20;98967.04;;;27.81;24.24
47592;BME280;33317;33.356;-117.184;2022-07-06T00:40:49;98969.75;;;27.80;24.14
47592;BME280;33317;33.356;-117.184;2022-07-06T00:43:17;98969.64;;;27.54;24.16
47592;BME280;33317;33.356;-117.184;2022-07-06T00:45:46;98970.46;;;27.88;24.00
47592;BME280;33317;33.356;-117.184;2022-07-06T00:48:14;98968.36;;;28.15;23.64
47592;BME280;33317;33.356;-117.184;2022-07-06T00:50:43;98968.79;;;27.91;23.59
47592;BME280;33317;33.356;-117.184;2022-07-06T00:53:13;98970.44;;;27.94;23.77
47592;BME280;33317;33.356;-117.184;2022-07-06T00:55:43;98968.80;;;28.13;23.86
47592;BME280;33317;33.356;-117.184;2022-07-06T00:58:11;98970.64;;;27.68;23.89
47592;BME280;33317;33.356;-117.184;2022-07-06T01:00:40;98969.20;;;28.18;24.14
47592;BME280;33317;33.356;-117.184;2022-07-06T01:03:08;98974.01;;;28.03;24.32
47592;BME280;33317;33.356;-117.184;2022-07-06T01:05:38;98973.93;;;27.86;23.85
47592;BME280;33317;33.356;-117.184;2022-07-06T01:08:07;98972.41;;;27.98;23.69
47592;BME280;33317;33.356;-117.184;2022-07-06T01:10:40;98974.37;;;28.19;23.79
47592;BME280;33317;33.356;-117.184;2022-07-06T01:13:09;98972.03;;;27.63;24.00
47592;BME280;33317;33.356;-117.184;2022-07-06T01:15:38;98966.74;;;26.23;25.30
47592;BME280;33317;33.356;-117.184;2022-07-06T01:18:11;98967.40;;;27.41;24.52
47592;BME280;33317;33.356;-117.184;2022-07-06T01:20:40;98970.00;;;27.83;23.92
47592;BME280;33317;33.356;-117.184;2022-07-06T01:23:08;98971.05;;;27.83;24.03
47592;BME280;33317;33.356;-117.184;2022-07-06T01:25:37;98972.00;;;28.10;23.89
47592;BME280;33317;33.356;-117.184;2022-07-06T01:28:07;98968.09;;;27.91;24.35
47592;BME280;33317;33.356;-117.184;2022-07-06T01:30:35;98966.44;;;27.81;24.21
47592;BME280;33317;33.356;-117.184;2022-07-06T01:33:03;98970.32;;;27.71;24.28
47592;BME280;33317;33.356;-117.184;2022-07-06T01:35:43;98974.00;;;27.60;24.13
47592;BME280;33317;33.356;-117.184;2022-07-06T01:38:12;98973.60;;;26.43;25.66
47592;BME280;33317;33.356;-117.184;2022-07-06T01:40:40;98979.43;;;25.96;26.08
47592;BME280;33317;33.356;-117.184;2022-07-06T01:43:09;98979.37;;;24.95;26.85
47592;BME280;33317;33.356;-117.184;2022-07-06T01:45:37;98976.95;;;26.33;25.62
47592;BME280;33317;33.356;-117.184;2022-07-06T01:48:11;98983.48;;;27.25;24.78
47592;BME280;33317;33.356;-117.184;2022-07-06T01:50:39;98987.31;;;27.83;24.90
47592;BME280;33317;33.356;-117.184;2022-07-06T01:53:08;98989.05;;;27.60;24.50
47592;BME280;33317;33.356;-117.184;2022-07-06T01:55:38;98992.40;;;27.88;24.35
47592;BME280;33317;33.356;-117.184;2022-07-06T01:58:11;98993.42;;;28.07;24.41
47592;BME280;33317;33.356;-117.184;2022-07-06T02:00:40;98994.86;;;28.19;24.36
47592;BME280;33317;33.356;-117.184;2022-07-06T02:03:08;98997.68;;;27.88;24.77
47592;BME280;33317;33.356;-117.184;2022-07-06T02:05:36;98999.01;;;27.30;25.06
47592;BME280;33317;33.356;-117.184;2022-07-06T02:08:09;99002.36;;;27.54;25.18
47592;BME280;33317;33.356;-117.184;2022-07-06T02:10:38;99007.84;;;28.08;24.63
47592;BME280;33317;33.356;-117.184;2022-07-06T02:13:07;99012.47;;;28.25;24.49
47592;BME280;33317;33.356;-117.184;2022-07-06T02:15:36;99011.49;;;28.33;24.34
47592;BME280;33317;33.356;-117.184;2022-07-06T02:18:05;99014.56;;;28.57;24.17
47592;BME280;33317;33.356;-117.184;2022-07-06T02:20:34;99013.29;;;28.25;24.18
47592;BME280;33317;33.356;-117.184;2022-07-06T02:23:03;99016.41;;;27.86;24.39
47592;BME280;33317;33.356;-117.184;2022-07-06T02:25:32;99020.59;;;28.01;24.54
47592;BME280;33317;33.356;-117.184;2022-07-06T02:28:01;99021.34;;;27.61;24.88
47592;BME280;33317;33.356;-117.184;2022-07-06T02:30:31;99022.24;;;27.57;24.93
47592;BME280;33317;33.356;-117.184;2022-07-06T02:33:00;99024.81;;;27.99;24.96
47592;BME280;33317;33.356;-117.184;2022-07-06T02:35:28;99025.33;;;28.37;24.58
47592;BME280;33317;33.356;-117.184;2022-07-06T02:38:03;99024.06;;;28.56;24.21
47592;BME280;33317;33.356;-117.184;2022-07-06T02:40:31;99026.75;;;27.68;24.70
47592;BME280;33317;33.356;-117.184;2022-07-06T02:42:59;99029.38;;;27.34;24.96
47592;BME280;33317;33.356;-117.184;2022-07-06T02:45:29;99031.72;;;27.53;25.19
47592;BME280;33317;33.356;-117.184;2022-07-06T02:47:58;99032.45;;;27.88;24.80
47592;BME280;33317;33.356;-117.184;2022-07-06T02:50:26;99034.35;;;28.03;24.52
47592;BME280;33317;33.356;-117.184;2022-07-06T02:52:56;99034.22;;;28.33;24.44
47592;BME280;33317;33.356;-117.184;2022-07-06T02:55:25;99033.51;;;28.51;24.37
47592;BME280;33317;33.356;-117.184;2022-07-06T02:57:53;99035.89;;;28.39;24.57
47592;BME280;33317;33.356;-117.184;2022-07-06T03:00:22;99036.57;;;28.36;24.01
47592;BME280;33317;33.356;-117.184;2022-07-06T03:02:51;99038.97;;;27.60;24.96
47592;BME280;33317;33.356;-117.184;2022-07-06T03:05:25;99042.24;;;28.00;24.73
47592;BME280;33317;33.356;-117.184;2022-07-06T03:07:54;99045.27;;;28.14;24.89
47592;BME280;33317;33.356;-117.184;2022-07-06T03:10:30;99047.41;;;28.44;24.55
47592;BME280;33317;33.356;-117.184;2022-07-06T03:12:58;99047.65;;;28.56;24.53
47592;BME280;33317;33.356;-117.184;2022-07-06T03:15:28;99049.60;;;27.37;25.07
47592;BME280;33317;33.356;-117.184;2022-07-06T03:18:31;99053.09;;;26.64;25.62
47592;BME280;33317;33.356;-117.184;2022-07-06T03:21:05;99056.72;;;26.64;25.80
47592;BME280;33317;33.356;-117.184;2022-07-06T03:23:34;99056.64;;;27.04;25.61
47592;BME280;33317;33.356;-117.184;2022-07-06T03:26:06;99057.00;;;27.26;25.40
47592;BME280;33317;33.356;-117.184;2022-07-06T03:28:34;99056.79;;;27.48;24.95
47592;BME280;33317;33.356;-117.184;2022-07-06T03:31:03;99063.51;;;28.05;24.81
47592;BME280;33317;33.356;-117.184;2022-07-06T03:33:36;99066.19;;;28.27;24.98
47592;BME280;33317;33.356;-117.184;2022-07-06T03:36:06;99068.20;;;28.16;24.57
47592;BME280;33317;33.356;-117.184;2022-07-06T03:38:36;99070.24;;;27.97;24.29
47592;BME280;33317;33.356;-117.184;2022-07-06T03:41:06;99077.12;;;28.18;24.45
47592;BME280;33317;33.356;-117.184;2022-07-06T03:43:35;99079.90;;;27.76;24.90
47592;BME280;33317;33.356;-117.184;2022-07-06T03:46:08;99080.66;;;28.03;24.96
47592;BME280;33317;33.356;-117.184;2022-07-06T03:48:37;99082.19;;;27.77;24.96
47592;BME280;33317;33.356;-117.184;2022-07-06T03:51:07;99085.58;;;28.39;24.98
47592;BME280;33317;33.356;-117.184;2022-07-06T03:53:37;99088.04;;;28.01;24.83
47592;BME280;33317;33.356;-117.184;2022-07-06T03:56:07;99090.48;;;28.00;24.50
47592;BME280;33317;33.356;-117.184;2022-07-06T03:58:36;99091.43;;;27.11;25.47
47592;BME280;33317;33.356;-117.184;2022-07-06T04:01:06;99094.16;;;26.53;25.83
47592;BME280;33317;33.356;-117.184;2022-07-06T04:03:40;99097.72;;;26.17;26.13
47592;BME280;33317;33.356;-117.184;2022-07-06T04:06:09;99099.19;;;26.70;25.87
47592;BME280;33317;33.356;-117.184;2022-07-06T04:08:43;99095.53;;;27.07;25.46
47592;BME280;33317;33.356;-117.184;2022-07-06T04:11:19;99095.45;;;27.44;25.23
47592;BME280;33317;33.356;-117.184;2022-07-06T04:13:50;99097.38;;;27.73;25.34
47592;BME280;33317;33.356;-117.184;2022-07-06T04:16:21;99100.15;;;28.16;24.78
47592;BME280;33317;33.356;-117.184;2022-07-06T04:18:55;99099.79;;;27.85;24.63
47592;BME280;33317;33.356;-117.184;2022-07-06T04:21:25;99101.50;;;28.07;24.61
47592;BME280;33317;33.356;-117.184;2022-07-06T04:24:04;99103.93;;;27.85;24.98
47592;BME280;33317;33.356;-117.184;2022-07-06T04:26:32;99109.42;;;28.17;24.95
47592;BME280;33317;33.356;-117.184;2022-07-06T04:29:01;99110.18;;;28.02;25.27
47592;BME280;33317;33.356;-117.184;2022-07-06T04:31:31;99109.55;;;28.08;25.05
47592;BME280;33317;33.356;-117.184;2022-07-06T04:34:06;99111.38;;;27.87;25.42
47592;BME280;33317;33.356;-117.184;2022-07-06T04:36:37;99108.69;;;27.94;24.94
47592;BME280;33317;33.356;-117.184;2022-07-06T04:39:06;99109.16;;;28.14;24.63
47592;BME280;33317;33.356;-117.184;2022-07-06T04:41:36;99115.72;;;27.80;25.00
47592;BME280;33317;33.356;-117.184;2022-07-06T04:44:04;99120.02;;;27.78;25.11
47592;BME280;33317;33.356;-117.184;2022-07-06T04:46:41;99121.66;;;28.07;25.21
47592;BME280;33317;33.356;-117.184;2022-07-06T04:49:15;99122.77;;;28.08;25.28
47592;BME280;33317;33.356;-117.184;2022-07-06T04:51:43;99124.63;;;28.08;25.40
47592;BME280;33317;33.356;-117.184;2022-07-06T04:54:16;99127.74;;;28.14;25.82
47592;BME280;33317;33.356;-117.184;2022-07-06T04:56:45;99125.33;;;27.54;25.41
47592;BME280;33317;33.356;-117.184;2022-07-06T04:59:15;99125.59;;;27.90;24.93
47592;BME280;33317;33.356;-117.184;2022-07-06T05:01:46;99131.05;;;27.65;25.15
47592;BME280;33317;33.356;-117.184;2022-07-06T05:04:15;99131.36;;;27.96;25.24
47592;BME280;33317;33.356;-117.184;2022-07-06T05:06:48;99132.40;;;27.99;25.37
47592;BME280;33317;33.356;-117.184;2022-07-06T05:09:17;99135.58;;;28.01;25.50
47592;BME280;33317;33.356;-117.184;2022-07-06T05:11:47;99138.52;;;28.03;25.40
47592;BME280;33317;33.356;-117.184;2022-07-06T05:14:16;99137.10;;;27.76;25.42
47592;BME280;33317;33.356;-117.184;2022-07-06T05:16:45;99140.82;;;28.04;25.56
47592;BME280;33317;33.356;-117.184;2022-07-06T05:19:14;99141.35;;;28.00;25.65
47592;BME280;33317;33.356;-117.184;2022-07-06T05:21:43;99145.17;;;28.00;25.71
47592;BME280;33317;33.356;-117.184;2022-07-06T05:24:12;99147.77;;;28.00;25.77
47592;BME280;33317;33.356;-117.184;2022-07-06T05:26:41;99144.62;;;28.22;25.86
47592;BME280;33317;33.356;-117.184;2022-07-06T05:29:10;99145.15;;;27.71;25.77
47592;BME280;33317;33.356;-117.184;2022-07-06T05:31:39;99148.22;;;27.78;25.78
47592;BME280;33317;33.356;-117.184;2022-07-06T05:34:12;99144.49;;;28.08;25.81
47592;BME280;33317;33.356;-117.184;2022-07-06T05:36:40;99145.14;;;27.82;25.79
47592;BME280;33317;33.356;-117.184;2022-07-06T05:39:09;99145.31;;;28.10;26.05
47592;BME280;33317;33.356;-117.184;2022-07-06T05:41:42;99147.24;;;28.12;25.98
47592;BME280;33317;33.356;-117.184;2022-07-06T05:44:12;99146.71;;;28.08;25.92
47592;BME280;33317;33.356;-117.184;2022-07-06T05:46:41;99150.64;;;27.81;26.00
47592;BME280;33317;33.356;-117.184;2022-07-06T05:49:10;99154.18;;;28.25;26.08
47592;BME280;33317;33.356;-117.184;2022-07-06T05:51:41;99152.99;;;28.26;26.15
47592;BME280;33317;33.356;-117.184;2022-07-06T05:54:10;99153.17;;;27.80;26.14
47592;BME280;33317;33.356;-117.184;2022-07-06T05:56:39;99151.43;;;27.80;26.26
47592;BME280;33317;33.356;-117.184;2022-07-06T05:59:08;99152.03;;;27.80;26.24
47592;BME280;33317;33.356;-117.184;2022-07-06T06:01:36;99150.95;;;28.09;26.17
47592;BME280;33317;33.356;-117.184;2022-07-06T06:04:05;99148.63;;;28.08;26.38
47592;BME280;33317;33.356;-117.184;2022-07-06T06:06:38;99146.31;;;27.79;26.23
47592;BME280;33317;33.356;-117.184;2022-07-06T06:09:07;99147.28;;;27.81;26.31
47592;BME280;33317;33.356;-117.184;2022-07-06T06:11:36;99144.07;;;27.78;26.33
47592;BME280;33317;33.356;-117.184;2022-07-06T06:14:04;99145.94;;;28.04;26.40
47592;BME280;33317;33.356;-117.184;2022-07-06T06:16:33;99146.38;;;28.01;26.39
47592;BME280;33317;33.356;-117.184;2022-07-06T06:19:06;99147.62;;;28.00;26.56
47592;BME280;33317;33.356;-117.184;2022-07-06T06:21:35;99147.20;;;28.19;26.49
47592;BME280;33317;33.356;-117.184;2022-07-06T06:24:04;99148.90;;;27.94;26.64
47592;BME280;33317;33.356;-117.184;2022-07-06T06:26:32;99145.42;;;28.14;26.70
47592;BME280;33317;33.356;-117.184;2022-07-06T06:29:01;99141.44;;;27.92;26.64
47592;BME280;33317;33.356;-117.184;2022-07-06T06:31:30;99140.94;;;28.11;26.84
47592;BME280;33317;33.356;-117.184;2022-07-06T06:33:58;99141.52;;;27.90;26.76
47592;BME280;33317;33.356;-117.184;2022-07-06T06:36:27;99140.15;;;28.10;26.85
47592;BME280;33317;33.356;-117.184;2022-07-06T06:38:56;99139.14;;;27.58;26.95
47592;BME280;33317;33.356;-117.184;2022-07-06T06:41:24;99136.91;;;27.84;26.92
47592;BME280;33317;33.356;-117.184;2022-07-06T06:43:52;99137.22;;;27.82;26.88
47592;BME280;33317;33.356;-117.184;2022-07-06T06:46:21;99137.39;;;28.02;26.88
47592;BME280;33317;33.356;-117.184;2022-07-06T06:48:49;99139.87;;;28.00;26.98
47592;BME280;33317;33.356;-117.184;2022-07-06T06:51:24;99139.36;;;27.53;27.14
47592;BME280;33317;33.356;-117.184;2022-07-06T06:53:52;99137.32;;;27.81;26.92
47592;BME280;33317;33.356;-117.184;2022-07-06T06:56:26;99137.44;;;28.03;26.96
47592;BME280;33317;33.356;-117.184;2022-07-06T06:58:54;99138.61;;;27.80;27.05
47592;BME280;33317;33.356;-117.184;2022-07-06T07:01:24;99136.95;;;27.50;27.13
47592;BME280;33317;33.356;-117.184;2022-07-06T07:03:53;99137.58;;;28.05;27.05
47592;BME280;33317;33.356;-117.184;2022-07-06T07:06:21;99134.74;;;27.81;27.10
47592;BME280;33317;33.356;-117.184;2022-07-06T07:08:49;99132.73;;;27.51;27.09
47592;BME280;33317;33.356;-117.184;2022-07-06T07:11:18;99132.54;;;27.50;27.23
47592;BME280;33317;33.356;-117.184;2022-07-06T07:13:46;99131.01;;;27.48;27.22
47592;BME280;33317;33.356;-117.184;2022-07-06T07:16:15;99129.47;;;27.96;27.23
47592;BME280;33317;33.356;-117.184;2022-07-06T07:18:43;99127.37;;;27.74;27.23
47592;BME280;33317;33.356;-117.184;2022-07-06T07:21:11;99126.81;;;28.00;27.33
47592;BME280;33317;33.356;-117.184;2022-07-06T07:23:40;99125.16;;;27.74;27.27
47592;BME280;33317;33.356;-117.184;2022-07-06T07:26:08;99124.44;;;27.95;27.28
47592;BME280;33317;33.356;-117.184;2022-07-06T07:28:37;99124.52;;;27.71;27.26
47592;BME280;33317;33.356;-117.184;2022-07-06T07:31:05;99129.04;;;27.40;27.21
47592;BME280;33317;33.356;-117.184;2022-07-06T07:33:33;99130.98;;;27.88;27.32
47592;BME280;33317;33.356;-117.184;2022-07-06T07:36:02;99131.57;;;27.86;27.42
47592;BME280;33317;33.356;-117.184;2022-07-06T07:38:31;99130.70;;;27.84;27.52
47592;BME280;33317;33.356;-117.184;2022-07-06T07:40:59;99131.73;;;27.79;27.58
47592;BME280;33317;33.356;-117.184;2022-07-06T07:43:27;99126.41;;;27.74;27.56
47592;BME280;33317;33.356;-117.184;2022-07-06T07:45:55;99126.91;;;27.76;27.61
47592;BME280;33317;33.356;-117.184;2022-07-06T07:48:24;99126.26;;;27.77;27.61
47592;BME280;33317;33.356;-117.184;2022-07-06T07:50:53;99123.48;;;27.77;27.60
47592;BME280;33317;33.356;-117.184;2022-07-06T07:53:22;99122.27;;;27.55;27.65
47592;BME280;33317;33.356;-117.184;2022-07-06T07:55:50;99120.51;;;27.76;27.79
47592;BME280;33317;33.356;-117.184;2022-07-06T07:58:18;99118.82;;;27.54;27.60
47592;BME280;33317;33.356;-117.184;2022-07-06T08:00:47;99120.19;;;27.49;27.69
47592;BME280;33317;33.356;-117.184;2022-07-06T08:03:15;99119.44;;;27.55;27.55
47592;BME280;33317;33.356;-117.184;2022-07-06T08:05:43;99120.78;;;27.57;27.55
47592;BME280;33317;33.356;-117.184;2022-07-06T08:08:12;99118.62;;;27.82;27.55
47592;BME280;33317;33.356;-117.184;2022-07-06T08:10:40;99119.28;;;27.85;27.53
47592;BME280;33317;33.356;-117.184;2022-07-06T08:13:08;99116.81;;;27.37;27.50
47592;BME280;33317;33.356;-117.184;2022-07-06T08:15:37;99112.75;;;27.89;27.51
47592;BME280;33317;33.356;-117.184;2022-07-06T08:18:05;99114.89;;;27.43;27.60
47592;BME280;33317;33.356;-117.184;2022-07-06T08:20:34;99114.37;;;27.71;27.55
47592;BME280;33317;33.356;-117.184;2022-07-06T08:23:02;99116.99;;;27.42;27.65
47592;BME280;33317;33.356;-117.184;2022-07-06T08:25:31;99117.44;;;27.45;27.66
47592;BME280;33317;33.356;-117.184;2022-07-06T08:28:00;99115.40;;;27.75;27.62
47592;BME280;33317;33.356;-117.184;2022-07-06T08:30:28;99117.20;;;27.76;27.59
47592;BME280;33317;33.356;-117.184;2022-07-06T08:32:56;99116.45;;;27.79;27.58
47592;BME280;33317;33.356;-117.184;2022-07-06T08:35:25;99113.31;;;28.03;27.58
47592;BME280;33317;33.356;-117.184;2022-07-06T08:37:53;99108.79;;;28.01;27.69
47592;BME280;33317;33.356;-117.184;2022-07-06T08:40:22;99106.53;;;27.80;27.63
47592;BME280;33317;33.356;-117.184;2022-07-06T08:42:52;99108.46;;;27.81;27.77
47592;BME280;33317;33.356;-117.184;2022-07-06T08:45:21;99110.93;;;27.80;27.73
47592;BME280;33317;33.356;-117.184;2022-07-06T08:47:50;99111.01;;;27.80;27.74
47592;BME280;33317;33.356;-117.184;2022-07-06T08:50:19;99109.13;;;27.83;27.56
47592;BME280;33317;33.356;-117.184;2022-07-06T08:52:48;99109.69;;;27.86;27.55
47592;BME280;33317;33.356;-117.184;2022-07-06T08:55:17;99107.42;;;27.87;27.43
47592;BME280;33317;33.356;-117.184;2022-07-06T08:57:46;99106.81;;;27.89;27.40
47592;BME280;33317;33.356;-117.184;2022-07-06T09:00:15;99104.70;;;27.64;27.46
47592;BME280;33317;33.356;-117.184;2022-07-06T09:02:44;99107.50;;;27.93;27.46
47592;BME280;33317;33.356;-117.184;2022-07-06T09:05:15;99106.31;;;27.67;27.36
47592;BME280;33317;33.356;-117.184;2022-07-06T09:07:47;99102.46;;;27.94;27.51
47592;BME280;33317;33.356;-117.184;2022-07-06T09:10:19;99102.18;;;27.96;27.52
47592;BME280;33317;33.356;-117.184;2022-07-06T09:12:49;99102.60;;;28.20;27.50
47592;BME280;33317;33.356;-117.184;2022-07-06T09:15:17;99099.15;;;27.95;27.58
47592;BME280;33317;33.356;-117.184;2022-07-06T09:17:46;99097.50;;;27.93;27.60
47592;BME280;33317;33.356;-117.184;2022-07-06T09:20:14;99098.09;;;27.66;27.61
47592;BME280;33317;33.356;-117.184;2022-07-06T09:22:43;99097.95;;;27.89;27.59
47592;BME280;33317;33.356;-117.184;2022-07-06T09:25:13;99097.96;;;27.89;27.68
47592;BME280;33317;33.356;-117.184;2022-07-06T09:27:42;99098.86;;;27.90;27.66
47592;BME280;33317;33.356;-117.184;2022-07-06T09:30:12;99098.62;;;27.89;27.58
47592;BME280;33317;33.356;-117.184;2022-07-06T09:32:42;99101.03;;;28.11;27.69
47592;BME280;33317;33.356;-117.184;2022-07-06T09:35:21;99101.85;;;27.86;27.64
47592;BME280;33317;33.356;-117.184;2022-07-06T09:38:00;99100.14;;;27.85;27.78
47592;BME280;33317;33.356;-117.184;2022-07-06T09:40:31;99100.07;;;27.85;27.86
47592;BME280;33317;33.356;-117.184;2022-07-06T09:43:22;99097.49;;;27.56;27.98
47592;BME280;33317;33.356;-117.184;2022-07-06T09:45:52;99098.98;;;27.85;27.74
47592;BME280;33317;33.356;-117.184;2022-07-06T09:48:22;99102.51;;;27.85;27.73
47592;BME280;33317;33.356;-117.184;2022-07-06T09:50:52;99107.35;;;27.54;27.75
47592;BME280;33317;33.356;-117.184;2022-07-06T09:53:22;99109.58;;;27.81;27.78
47592;BME280;33317;33.356;-117.184;2022-07-06T09:55:54;99111.11;;;27.54;27.78
47592;BME280;33317;33.356;-117.184;2022-07-06T09:58:23;99112.44;;;27.78;27.77
47592;BME280;33317;33.356;-117.184;2022-07-06T10:00:52;99113.91;;;28.00;27.70
47592;BME280;33317;33.356;-117.184;2022-07-06T10:03:20;99112.25;;;27.51;27.75
47592;BME280;33317;33.356;-117.184;2022-07-06T10:05:49;99113.71;;;27.79;27.66
47592;BME280;33317;33.356;-117.184;2022-07-06T10:08:17;99114.38;;;27.79;27.91
47592;BME280;33317;33.356;-117.184;2022-07-06T10:10:45;99113.90;;;27.44;27.85
47592;BME280;33317;33.356;-117.184;2022-07-06T10:13:15;99115.58;;;27.68;27.85
47592;BME280;33317;33.356;-117.184;2022-07-06T10:15:48;99114.98;;;27.71;27.77
47592;BME280;33317;33.356;-117.184;2022-07-06T10:18:17;99113.33;;;27.71;27.80
47592;BME280;33317;33.356;-117.184;2022-07-06T10:20:46;99112.81;;;27.89;27.93
47592;BME280;33317;33.356;-117.184;2022-07-06T10:23:15;99111.66;;;27.87;27.88
47592;BME280;33317;33.356;-117.184;2022-07-06T10:25:45;99109.90;;;27.59;27.91
47592;BME280;33317;33.356;-117.184;2022-07-06T10:28:14;99112.54;;;27.78;28.01
47592;BME280;33317;33.356;-117.184;2022-07-06T10:30:43;99112.12;;;27.76;28.10
47592;BME280;33317;33.356;-117.184;2022-07-06T10:33:15;99113.99;;;27.58;28.13
47592;BME280;33317;33.356;-117.184;2022-07-06T10:35:45;99112.05;;;27.64;27.98
47592;BME280;33317;33.356;-117.184;2022-07-06T10:38:14;99111.87;;;27.88;27.96
47592;BME280;33317;33.356;-117.184;2022-07-06T10:40:42;99109.99;;;27.87;28.00
47592;BME280;33317;33.356;-117.184;2022-07-06T10:43:12;99110.45;;;27.88;27.92
47592;BME280;33317;33.356;-117.184;2022-07-06T10:45:57;99106.09;;;27.41;27.88
47592;BME280;33317;33.356;-117.184;2022-07-06T10:48:35;99106.49;;;27.74;27.82
47592;BME280;33317;33.356;-117.184;2022-07-06T10:51:03;99105.89;;;27.67;27.84
47592;BME280;33317;33.356;-117.184;2022-07-06T10:53:36;99105.28;;;27.57;28.09
47592;BME280;33317;33.356;-117.184;2022-07-06T10:56:09;99104.58;;;27.75;28.01
47592;BME280;33317;33.356;-117.184;2022-07-06T10:58:41;99104.30;;;27.72;28.16
47592;BME280;33317;33.356;-117.184;2022-07-06T11:01:14;99100.14;;;27.45;28.07
47592;BME280;33317;33.356;-117.184;2022-07-06T11:03:45;99099.87;;;27.46;28.18
47592;BME280;33317;33.356;-117.184;2022-07-06T11:06:16;99101.61;;;27.74;28.09
47592;BME280;33317;33.356;-117.184;2022-07-06T11:08:51;99102.90;;;27.68;28.03
47592;BME280;33317;33.356;-117.184;2022-07-06T11:11:23;99099.77;;;27.69;28.10
47592;BME280;33317;33.356;-117.184;2022-07-06T11:13:54;99097.98;;;27.50;28.04
47592;BME280;33317;33.356;-117.184;2022-07-06T11:16:25;99100.39;;;27.73;28.09
47592;BME280;33317;33.356;-117.184;2022-07-06T11:19:06;99101.57;;;27.71;28.12
47592;BME280;33317;33.356;-117.184;2022-07-06T11:21:39;99103.17;;;27.54;28.04
47592;BME280;33317;33.356;-117.184;2022-07-06T11:24:10;99104.64;;;27.74;28.13
47592;BME280;33317;33.356;-117.184;2022-07-06T11:26:39;99105.77;;;27.54;28.08
47592;BME280;33317;33.356;-117.184;2022-07-06T11:29:08;99103.42;;;27.58;28.07
47592;BME280;33317;33.356;-117.184;2022-07-06T11:31:38;99104.49;;;27.61;28.09
47592;BME280;33317;33.356;-117.184;2022-07-06T11:34:08;99104.76;;;27.80;28.05
47592;BME280;33317;33.356;-117.184;2022-07-06T11:36:37;99106.23;;;27.82;28.01
47592;BME280;33317;33.356;-117.184;2022-07-06T11:39:06;99107.49;;;27.57;27.98
47592;BME280;33317;33.356;-117.184;2022-07-06T11:41:35;99106.26;;;27.59;28.01
47592;BME280;33317;33.356;-117.184;2022-07-06T11:44:04;99104.92;;;27.73;28.20
47592;BME280;33317;33.356;-117.184;2022-07-06T11:46:33;99100.31;;;27.48;28.23
47592;BME280;33317;33.356;-117.184;2022-07-06T11:49:04;99099.52;;;27.66;28.28
47592;BME280;33317;33.356;-117.184;2022-07-06T11:51:34;99102.33;;;27.47;28.17
47592;BME280;33317;33.356;-117.184;2022-07-06T11:54:10;99099.45;;;27.68;28.30
47592;BME280;33317;33.356;-117.184;2022-07-06T11:56:46;99095.89;;;27.66;28.22
47592;BME280;33317;33.356;-117.184;2022-07-06T11:59:15;99097.75;;;27.47;28.28
47592;BME280;33317;33.356;-117.184;2022-07-06T12:01:44;99098.14;;;27.48;28.10
47592;BME280;33317;33.356;-117.184;2022-07-06T12:04:13;99097.27;;;27.68;28.20
47592;BME280;33317;33.356;-117.184;2022-07-06T12:06:42;99096.85;;;27.69;28.21
47592;BME280;33317;33.356;-117.184;2022-07-06T12:09:12;99098.58;;;27.71;28.22
47592;BME280;33317;33.356;-117.184;2022-07-06T12:11:41;99103.24;;;27.72;28.16
47592;BME280;33317;33.356;-117.184;2022-07-06T12:14:15;99108.56;;;27.64;28.28
47592;BME280;33317;33.356;-117.184;2022-07-06T12:16:44;99112.00;;;27.67;28.21
47592;BME280;33317;33.356;-117.184;2022-07-06T12:19:13;99113.38;;;27.52;28.25
47592;BME280;33317;33.356;-117.184;2022-07-06T12:21:46;99113.99;;;27.78;28.08
47592;BME280;33317;33.356;-117.184;2022-07-06T12:24:19;99110.58;;;27.78;28.20
47592;BME280;33317;33.356;-117.184;2022-07-06T12:26:49;99113.62;;;27.82;28.07
47592;BME280;33317;33.356;-117.184;2022-07-06T12:29:18;99118.17;;;27.61;28.01
47592;BME280;33317;33.356;-117.184;2022-07-06T12:31:50;99121.21;;;27.82;28.12
47592;BME280;33317;33.356;-117.184;2022-07-06T12:34:22;99123.21;;;27.82;28.14
47592;BME280;33317;33.356;-117.184;2022-07-06T12:36:52;99121.71;;;27.75;28.23
47592;BME280;33317;33.356;-117.184;2022-07-06T12:39:23;99123.90;;;27.50;28.21
47592;BME280;33317;33.356;-117.184;2022-07-06T12:41:52;99123.45;;;27.70;28.28
47592;BME280;33317;33.356;-117.184;2022-07-06T12:44:22;99121.99;;;27.49;28.24